sensor_id;sensor_type;location;lat;lon;timestamp;P1;durP1;ratioP1;P2;durP2;ratioP2
33987;SDS011;37428;53.580;-1.666;2023-09-19T00:01:55;9.18;;;1.75;;
33987;SDS011;37428;53.580;-1.666;2023-09-19T00:04:57;7.72;;;1.05;;
33987;SDS011;37428;53.580;-1.666;2023-09-19T00:08:03;7.80;;;1.40;;
33987;SDS011;37428;53.580;-1.666;2023-09-19T00:11:07;5.85;;;1.42;;
33987;SDS011;37428;53.580;-1.666;2023-09-19T00:14:11;10.77;;;1.52;;
33987;SDS011;37428;53.580;-1.666;2023-09-19T00:17:14;8.18;;;1.48;;
33987;SDS011;37428;53.580;-1.666;2023-09-19T00:20:16;9.40;;;1.42;;
33987;SDS011;37428;53.580;-1.666;2023-09-19T00:23:19;4.82;;;1.13;;
33987;SDS011;37428;53.580;-1.666;2023-09-19T00:26:22;8.77;;;1.60;;
33987;SDS011;37428;53.580;-1.666;2023-09-19T00:29:24;3.88;;;1.00;;
33987;SDS011;37428;53.580;-1.666;2023-09-19T00:32:29;9.55;;;1.52;;
33987;SDS011;37428;53.580;-1.666;2023-09-19T00:35:31;14.45;;;1.83;;
33987;SDS011;37428;53.580;-1.666;2023-09-19T00:38:33;9.95;;;1.63;;
33987;SDS011;37428;53.580;-1.666;2023-09-19T00:41:37;8.82;;;1.50;;
33987;SDS011;37428;53.580;-1.666;2023-09-19T00:44:40;9.23;;;2.38;;
33987;SDS011;37428;53.580;-1.666;2023-09-19T00:47:43;9.80;;;2.25;;
33987;SDS011;37428;53.580;-1.666;2023-09-19T00:50:46;7.30;;;1.55;;
33987;SDS011;37428;53.580;-1.666;2023-09-19T00:53:49;7.20;;;1.30;;
33987;SDS011;37428;53.580;-1.666;2023-09-19T00:56:54;7.97;;;1.60;;
33987;SDS011;37428;53.580;-1.666;2023-09-19T00:59:56;7.65;;;1.23;;
33987;SDS011;37428;53.580;-1.666;2023-09-19T01:02:59;8.55;;;1.65;;
33987;SDS011;37428;53.580;-1.666;2023-09-19T01:06:02;10.05;;;2.08;;
33987;SDS011;37428;53.580;-1.666;2023-09-19T01:09:04;9.00;;;1.17;;
33987;SDS011;37428;53.580;-1.666;2023-09-19T01:12:09;9.82;;;2.10;;
33987;SDS011;37428;53.580;-1.666;2023-09-19T01:15:20;9.13;;;1.38;;
33987;SDS011;37428;53.580;-1.666;2023-09-19T01:18:31;8.93;;;1.92;;
33987;SDS011;37428;53.580;-1.666;2023-09-19T01:21:43;9.20;;;1.92;;
33987;SDS011;37428;53.580;-1.666;2023-09-19T01:25:05;8.95;;;2.58;;
33987;SDS011;37428;53.580;-1.666;2023-09-19T01:28:28;12.57;;;2.13;;
33987;SDS011;37428;53.580;-1.666;2023-09-19T01:31:38;11.55;;;2.25;;
33987;SDS011;37428;53.580;-1.666;2023-09-19T01:34:44;9.30;;;2.33;;
33987;SDS011;37428;53.580;-1.666;2023-09-19T01:37:48;9.85;;;1.90;;
33987;SDS011;37428;53.580;-1.666;2023-09-19T01:40:53;11.23;;;2.03;;
33987;SDS011;37428;53.580;-1.666;2023-09-19T01:44:00;8.25;;;2.53;;
33987;SDS011;37428;53.580;-1.666;2023-09-19T01:47:19;9.93;;;2.83;;
33987;SDS011;37428;53.580;-1.666;2023-09-19T01:50:29;13.88;;;2.40;;
33987;SDS011;37428;53.580;-1.666;2023-09-19T01:53:39;12.07;;;1.88;;
33987;SDS011;37428;53.580;-1.666;2023-09-19T01:56:48;14.00;;;2.13;;
33987;SDS011;37428;53.580;-1.666;2023-09-19T02:00:02;12.13;;;1.85;;
33987;SDS011;37428;53.580;-1.666;2023-09-19T02:03:10;8.75;;;1.67;;
33987;SDS011;37428;53.580;-1.666;2023-09-19T02:06:14;15.50;;;2.03;;
33987;SDS011;37428;53.580;-1.666;2023-09-19T02:09:17;9.77;;;1.42;;
33987;SDS011;37428;53.580;-1.666;2023-09-19T02:12:20;13.98;;;1.98;;
33987;SDS011;37428;53.580;-1.666;2023-09-19T02:15:22;8.57;;;2.35;;
33987;SDS011;37428;53.580;-1.666;2023-09-19T02:18:25;9.68;;;2.05;;
33987;SDS011;37428;53.580;-1.666;2023-09-19T02:21:28;10.82;;;2.60;;
33987;SDS011;37428;53.580;-1.666;2023-09-19T02:24:30;8.23;;;2.03;;
33987;SDS011;37428;53.580;-1.666;2023-09-19T02:27:32;8.82;;;1.70;;
33987;SDS011;37428;53.580;-1.666;2023-09-19T02:30:34;12.18;;;1.98;;
33987;SDS011;37428;53.580;-1.666;2023-09-19T02:33:38;11.38;;;2.83;;
33987;SDS011;37428;53.580;-1.666;2023-09-19T02:36:40;10.65;;;2.35;;
33987;SDS011;37428;53.580;-1.666;2023-09-19T02:39:44;19.15;;;3.45;;
33987;SDS011;37428;53.580;-1.666;2023-09-19T02:42:46;15.27;;;3.00;;
33987;SDS011;37428;53.580;-1.666;2023-09-19T02:45:49;11.68;;;2.13;;
33987;SDS011;37428;53.580;-1.666;2023-09-19T02:48:55;16.05;;;3.13;;
33987;SDS011;37428;53.580;-1.666;2023-09-19T02:51:57;19.77;;;3.65;;
33987;SDS011;37428;53.580;-1.666;2023-09-19T02:58:01;17.27;;;2.47;;
33987;SDS011;37428;53.580;-1.666;2023-09-19T03:01:08;16.65;;;2.75;;
33987;SDS011;37428;53.580;-1.666;2023-09-19T03:04:14;15.25;;;2.70;;
33987;SDS011;37428;53.580;-1.666;2023-09-19T03:07:19;16.38;;;2.92;;
33987;SDS011;37428;53.580;-1.666;2023-09-19T03:10:22;15.30;;;2.80;;
33987;SDS011;37428;53.580;-1.666;2023-09-19T03:16:26;17.33;;;2.92;;
33987;SDS011;37428;53.580;-1.666;2023-09-19T03:19:30;17.40;;;2.78;;
33987;SDS011;37428;53.580;-1.666;2023-09-19T03:22:33;11.77;;;2.67;;
33987;SDS011;37428;53.580;-1.666;2023-09-19T03:25:35;18.58;;;3.45;;
33987;SDS011;37428;53.580;-1.666;2023-09-19T03:28:38;16.15;;;3.30;;
33987;SDS011;37428;53.580;-1.666;2023-09-19T03:31:40;14.30;;;3.67;;
33987;SDS011;37428;53.580;-1.666;2023-09-19T03:34:44;13.77;;;2.78;;
33987;SDS011;37428;53.580;-1.666;2023-09-19T03:37:48;17.17;;;3.15;;
33987;SDS011;37428;53.580;-1.666;2023-09-19T03:40:52;18.40;;;2.92;;
33987;SDS011;37428;53.580;-1.666;2023-09-19T03:43:54;18.48;;;2.80;;
33987;SDS011;37428;53.580;-1.666;2023-09-19T03:46:57;14.30;;;2.97;;
33987;SDS011;37428;53.580;-1.666;2023-09-19T03:50:01;18.00;;;2.65;;
33987;SDS011;37428;53.580;-1.666;2023-09-19T03:53:04;13.40;;;3.03;;
33987;SDS011;37428;53.580;-1.666;2023-09-19T03:56:07;17.98;;;2.97;;
33987;SDS011;37428;53.580;-1.666;2023-09-19T03:59:09;15.73;;;2.70;;
33987;SDS011;37428;53.580;-1.666;2023-09-19T04:02:12;17.45;;;3.55;;
33987;SDS011;37428;53.580;-1.666;2023-09-19T04:05:23;8.70;;;2.22;;
33987;SDS011;37428;53.580;-1.666;2023-09-19T04:08:26;12.48;;;4.00;;
33987;SDS011;37428;53.580;-1.666;2023-09-19T04:11:28;16.60;;;2.83;;
33987;SDS011;37428;53.580;-1.666;2023-09-19T04:14:30;15.93;;;2.88;;
33987;SDS011;37428;53.580;-1.666;2023-09-19T04:17:32;15.05;;;2.30;;
33987;SDS011;37428;53.580;-1.666;2023-09-19T04:20:36;12.07;;;2.67;;
33987;SDS011;37428;53.580;-1.666;2023-09-19T04:23:38;20.85;;;2.65;;
33987;SDS011;37428;53.580;-1.666;2023-09-19T04:26:40;12.68;;;3.00;;
33987;SDS011;37428;53.580;-1.666;2023-09-19T04:29:43;11.88;;;3.13;;
33987;SDS011;37428;53.580;-1.666;2023-09-19T04:32:46;11.82;;;2.60;;
33987;SDS011;37428;53.580;-1.666;2023-09-19T04:35:52;15.75;;;2.80;;
33987;SDS011;37428;53.580;-1.666;2023-09-19T04:38:54;8.48;;;2.97;;
33987;SDS011;37428;53.580;-1.666;2023-09-19T04:41:56;15.32;;;2.42;;
33987;SDS011;37428;53.580;-1.666;2023-09-19T04:44:59;8.13;;;1.67;;
33987;SDS011;37428;53.580;-1.666;2023-09-19T04:48:01;9.02;;;2.42;;
33987;SDS011;37428;53.580;-1.666;2023-09-19T04:51:05;8.82;;;2.20;;
33987;SDS011;37428;53.580;-1.666;2023-09-19T04:54:07;6.78;;;2.20;;
33987;SDS011;37428;53.580;-1.666;2023-09-19T04:57:10;9.27;;;1.98;;
33987;SDS011;37428;53.580;-1.666;2023-09-19T05:00:13;8.23;;;2.20;;
33987;SDS011;37428;53.580;-1.666;2023-09-19T05:03:17;8.95;;;3.10;;
33987;SDS011;37428;53.580;-1.666;2023-09-19T05:06:22;6.85;;;2.15;;
33987;SDS011;37428;53.580;-1.666;2023-09-19T05:09:26;8.05;;;2.10;;
33987;SDS011;37428;53.580;-1.666;2023-09-19T05:12:28;9.07;;;2.13;;
33987;SDS011;37428;53.580;-1.666;2023-09-19T05:15:31;9.30;;;1.90;;
33987;SDS011;37428;53.580;-1.666;2023-09-19T05:18:33;8.07;;;1.88;;
33987;SDS011;37428;53.580;-1.666;2023-09-19T05:21:36;15.90;;;2.78;;
33987;SDS011;37428;53.580;-1.666;2023-09-19T05:24:39;8.45;;;1.90;;
33987;SDS011;37428;53.580;-1.666;2023-09-19T05:27:41;15.57;;;2.45;;
33987;SDS011;37428;53.580;-1.666;2023-09-19T05:30:43;10.75;;;1.55;;
33987;SDS011;37428;53.580;-1.666;2023-09-19T05:33:46;15.00;;;1.52;;
33987;SDS011;37428;53.580;-1.666;2023-09-19T05:36:49;12.05;;;1.70;;
33987;SDS011;37428;53.580;-1.666;2023-09-19T05:39:52;5.38;;;1.35;;
33987;SDS011;37428;53.580;-1.666;2023-09-19T05:42:54;11.10;;;1.70;;
33987;SDS011;37428;53.580;-1.666;2023-09-19T05:45:56;6.15;;;2.10;;
33987;SDS011;37428;53.580;-1.666;2023-09-19T05:49:01;7.72;;;2.05;;
33987;SDS011;37428;53.580;-1.666;2023-09-19T05:55:07;3.25;;;0.32;;
33987;SDS011;37428;53.580;-1.666;2023-09-19T05:58:11;3.28;;;1.00;;
33987;SDS011;37428;53.580;-1.666;2023-09-19T06:01:14;8.00;;;1.15;;
33987;SDS011;37428;53.580;-1.666;2023-09-19T06:04:17;1.10;;;1.00;;
33987;SDS011;37428;53.580;-1.666;2023-09-19T06:07:21;2.40;;;0.75;;
33987;SDS011;37428;53.580;-1.666;2023-09-19T06:10:26;4.07;;;1.00;;
33987;SDS011;37428;53.580;-1.666;2023-09-19T06:13:29;3.78;;;1.30;;
33987;SDS011;37428;53.580;-1.666;2023-09-19T06:16:33;4.82;;;1.25;;
33987;SDS011;37428;53.580;-1.666;2023-09-19T06:19:35;2.38;;;1.33;;
33987;SDS011;37428;53.580;-1.666;2023-09-19T06:22:39;4.32;;;1.38;;
33987;SDS011;37428;53.580;-1.666;2023-09-19T06:25:43;3.60;;;1.55;;
33987;SDS011;37428;53.580;-1.666;2023-09-19T06:28:45;4.25;;;1.90;;
33987;SDS011;37428;53.580;-1.666;2023-09-19T06:31:47;4.10;;;1.60;;
33987;SDS011;37428;53.580;-1.666;2023-09-19T06:34:51;3.13;;;1.67;;
33987;SDS011;37428;53.580;-1.666;2023-09-19T06:37:55;5.15;;;1.65;;
33987;SDS011;37428;53.580;-1.666;2023-09-19T06:40:58;4.43;;;1.20;;
33987;SDS011;37428;53.580;-1.666;2023-09-19T06:44:01;2.97;;;1.20;;
33987;SDS011;37428;53.580;-1.666;2023-09-19T06:47:03;4.63;;;1.75;;
33987;SDS011;37428;53.580;-1.666;2023-09-19T06:50:07;4.60;;;1.70;;
33987;SDS011;37428;53.580;-1.666;2023-09-19T06:53:14;3.88;;;1.33;;
33987;SDS011;37428;53.580;-1.666;2023-09-19T06:56:16;8.35;;;1.05;;
33987;SDS011;37428;53.580;-1.666;2023-09-19T06:59:19;2.35;;;1.08;;
33987;SDS011;37428;53.580;-1.666;2023-09-19T07:02:21;2.20;;;0.85;;
33987;SDS011;37428;53.580;-1.666;2023-09-19T07:05:24;3.20;;;1.25;;
33987;SDS011;37428;53.580;-1.666;2023-09-19T07:08:29;1.95;;;1.52;;
33987;SDS011;37428;53.580;-1.666;2023-09-19T07:11:31;3.13;;;1.42;;
33987;SDS011;37428;53.580;-1.666;2023-09-19T07:14:34;4.10;;;1.92;;
33987;SDS011;37428;53.580;-1.666;2023-09-19T07:17:36;4.28;;;1.92;;
33987;SDS011;37428;53.580;-1.666;2023-09-19T07:20:38;3.53;;;1.35;;
33987;SDS011;37428;53.580;-1.666;2023-09-19T07:23:42;6.43;;;1.65;;
33987;SDS011;37428;53.580;-1.666;2023-09-19T07:26:44;3.60;;;1.80;;
33987;SDS011;37428;53.580;-1.666;2023-09-19T07:29:47;3.75;;;1.52;;
33987;SDS011;37428;53.580;-1.666;2023-09-19T07:32:49;4.18;;;1.50;;
33987;SDS011;37428;53.580;-1.666;2023-09-19T07:35:51;4.05;;;2.10;;
33987;SDS011;37428;53.580;-1.666;2023-09-19T07:38:56;7.15;;;1.33;;
33987;SDS011;37428;53.580;-1.666;2023-09-19T07:42:07;3.60;;;1.26;;
33987;SDS011;37428;53.580;-1.666;2023-09-19T07:45:11;5.45;;;1.85;;
33987;SDS011;37428;53.580;-1.666;2023-09-19T07:48:16;3.95;;;1.60;;
33987;SDS011;37428;53.580;-1.666;2023-09-19T07:51:19;3.47;;;1.10;;
33987;SDS011;37428;53.580;-1.666;2023-09-19T07:54:22;2.40;;;1.05;;
33987;SDS011;37428;53.580;-1.666;2023-09-19T07:57:24;1.98;;;0.85;;
33987;SDS011;37428;53.580;-1.666;2023-09-19T08:00:26;1.58;;;0.90;;
33987;SDS011;37428;53.580;-1.666;2023-09-19T08:03:28;5.55;;;1.38;;
33987;SDS011;37428;53.580;-1.666;2023-09-19T08:06:31;5.82;;;1.45;;
33987;SDS011;37428;53.580;-1.666;2023-09-19T08:09:35;6.63;;;6.10;;
33987;SDS011;37428;53.580;-1.666;2023-09-19T08:12:38;2.55;;;1.08;;
33987;SDS011;37428;53.580;-1.666;2023-09-19T08:15:46;1.85;;;1.45;;
33987;SDS011;37428;53.580;-1.666;2023-09-19T08:18:48;2.20;;;1.50;;
33987;SDS011;37428;53.580;-1.666;2023-09-19T08:21:55;4.57;;;1.20;;
33987;SDS011;37428;53.580;-1.666;2023-09-19T08:24:59;2.83;;;0.90;;
33987;SDS011;37428;53.580;-1.666;2023-09-19T08:28:05;2.60;;;1.10;;
33987;SDS011;37428;53.580;-1.666;2023-09-19T08:31:12;2.03;;;0.85;;
33987;SDS011;37428;53.580;-1.666;2023-09-19T08:34:14;3.03;;;1.80;;
33987;SDS011;37428;53.580;-1.666;2023-09-19T08:37:16;2.88;;;1.25;;
33987;SDS011;37428;53.580;-1.666;2023-09-19T08:40:21;1.90;;;0.90;;
33987;SDS011;37428;53.580;-1.666;2023-09-19T08:43:23;4.82;;;0.77;;
33987;SDS011;37428;53.580;-1.666;2023-09-19T08:46:26;1.02;;;0.80;;
33987;SDS011;37428;53.580;-1.666;2023-09-19T08:49:33;1.85;;;0.63;;
33987;SDS011;37428;53.580;-1.666;2023-09-19T08:55:49;2.00;;;0.60;;
33987;SDS011;37428;53.580;-1.666;2023-09-19T08:58:55;1.73;;;0.68;;
33987;SDS011;37428;53.580;-1.666;2023-09-19T09:02:01;1.10;;;0.70;;
33987;SDS011;37428;53.580;-1.666;2023-09-19T09:05:04;2.85;;;2.40;;
33987;SDS011;37428;53.580;-1.666;2023-09-19T09:08:08;1.65;;;0.40;;
33987;SDS011;37428;53.580;-1.666;2023-09-19T09:11:12;1.23;;;0.60;;
33987;SDS011;37428;53.580;-1.666;2023-09-19T09:14:17;1.45;;;0.50;;
33987;SDS011;37428;53.580;-1.666;2023-09-19T09:17:19;2.25;;;0.60;;
33987;SDS011;37428;53.580;-1.666;2023-09-19T09:20:22;0.52;;;0.40;;
33987;SDS011;37428;53.580;-1.666;2023-09-19T09:23:24;1.52;;;0.38;;
33987;SDS011;37428;53.580;-1.666;2023-09-19T09:26:42;1.23;;;0.30;;
33987;SDS011;37428;53.580;-1.666;2023-09-19T09:29:45;0.98;;;0.45;;
33987;SDS011;37428;53.580;-1.666;2023-09-19T09:32:49;1.33;;;0.20;;
33987;SDS011;37428;53.580;-1.666;2023-09-19T09:36:10;0.30;;;0.20;;
33987;SDS011;37428;53.580;-1.666;2023-09-19T09:39:13;1.02;;;0.20;;
33987;SDS011;37428;53.580;-1.666;2023-09-19T09:42:32;0.40;;;0.30;;
33987;SDS011;37428;53.580;-1.666;2023-09-19T09:45:39;0.65;;;0.32;;
33987;SDS011;37428;53.580;-1.666;2023-09-19T09:48:58;2.10;;;0.45;;
33987;SDS011;37428;53.580;-1.666;2023-09-19T09:52:25;2.38;;;0.73;;
33987;SDS011;37428;53.580;-1.666;2023-09-19T09:55:28;0.75;;;0.40;;
33987;SDS011;37428;53.580;-1.666;2023-09-19T10:01:56;0.43;;;0.22;;
33987;SDS011;37428;53.580;-1.666;2023-09-19T10:05:10;1.02;;;0.50;;
33987;SDS011;37428;53.580;-1.666;2023-09-19T10:08:21;0.52;;;0.20;;
33987;SDS011;37428;53.580;-1.666;2023-09-19T10:11:23;1.13;;;0.75;;
33987;SDS011;37428;53.580;-1.666;2023-09-19T10:14:33;0.93;;;0.45;;
33987;SDS011;37428;53.580;-1.666;2023-09-19T10:17:38;1.08;;;0.60;;
33987;SDS011;37428;53.580;-1.666;2023-09-19T10:20:44;0.15;;;0.10;;
33987;SDS011;37428;53.580;-1.666;2023-09-19T10:23:49;0.00;;;0.00;;
33987;SDS011;37428;53.580;-1.666;2023-09-19T10:26:56;0.30;;;0.15;;
33987;SDS011;37428;53.580;-1.666;2023-09-19T10:30:02;0.15;;;0.15;;
33987;SDS011;37428;53.580;-1.666;2023-09-19T10:33:08;0.20;;;0.08;;
33987;SDS011;37428;53.580;-1.666;2023-09-19T10:36:13;0.20;;;0.20;;
33987;SDS011;37428;53.580;-1.666;2023-09-19T10:39:16;0.10;;;0.10;;
33987;SDS011;37428;53.580;-1.666;2023-09-19T10:42:20;0.28;;;0.28;;
33987;SDS011;37428;53.580;-1.666;2023-09-19T10:45:26;0.47;;;0.10;;
33987;SDS011;37428;53.580;-1.666;2023-09-19T10:48:31;0.30;;;0.10;;
33987;SDS011;37428;53.580;-1.666;2023-09-19T10:51:38;1.02;;;0.50;;
33987;SDS011;37428;53.580;-1.666;2023-09-19T10:54:43;0.20;;;0.20;;
33987;SDS011;37428;53.580;-1.666;2023-09-19T10:57:52;0.52;;;0.20;;
33987;SDS011;37428;53.580;-1.666;2023-09-19T11:01:13;0.10;;;0.00;;
33987;SDS011;37428;53.580;-1.666;2023-09-19T11:04:22;0.10;;;0.10;;
33987;SDS011;37428;53.580;-1.666;2023-09-19T11:07:25;0.20;;;0.10;;
33987;SDS011;37428;53.580;-1.666;2023-09-19T11:10:45;4.70;;;4.40;;
33987;SDS011;37428;53.580;-1.666;2023-09-19T11:13:48;2.22;;;1.40;;
33987;SDS011;37428;53.580;-1.666;2023-09-19T11:20:45;4.03;;;3.00;;
33987;SDS011;37428;53.580;-1.666;2023-09-19T11:24:05;0.98;;;0.50;;
33987;SDS011;37428;53.580;-1.666;2023-09-19T11:27:32;0.45;;;0.40;;
33987;SDS011;37428;53.580;-1.666;2023-09-19T11:30:35;0.45;;;0.43;;
33987;SDS011;37428;53.580;-1.666;2023-09-19T11:33:41;0.30;;;0.25;;
33987;SDS011;37428;53.580;-1.666;2023-09-19T11:36:46;0.32;;;0.15;;
33987;SDS011;37428;53.580;-1.666;2023-09-19T11:43:28;0.57;;;0.57;;
33987;SDS011;37428;53.580;-1.666;2023-09-19T11:46:51;0.55;;;0.13;;
33987;SDS011;37428;53.580;-1.666;2023-09-19T11:49:56;0.25;;;0.20;;
33987;SDS011;37428;53.580;-1.666;2023-09-19T11:52:59;0.20;;;0.13;;
33987;SDS011;37428;53.580;-1.666;2023-09-19T11:56:04;0.88;;;0.28;;
33987;SDS011;37428;53.580;-1.666;2023-09-19T11:59:10;0.35;;;0.20;;
33987;SDS011;37428;53.580;-1.666;2023-09-19T12:02:14;0.38;;;0.38;;
33987;SDS011;37428;53.580;-1.666;2023-09-19T12:05:34;0.40;;;0.10;;
33987;SDS011;37428;53.580;-1.666;2023-09-19T12:08:38;0.17;;;0.08;;
33987;SDS011;37428;53.580;-1.666;2023-09-19T12:11:42;0.88;;;0.20;;
33987;SDS011;37428;53.580;-1.666;2023-09-19T12:14:47;0.95;;;0.22;;
33987;SDS011;37428;53.580;-1.666;2023-09-19T12:17:50;0.65;;;0.43;;
33987;SDS011;37428;53.580;-1.666;2023-09-19T12:20:56;0.52;;;0.17;;
33987;SDS011;37428;53.580;-1.666;2023-09-19T12:23:59;0.13;;;0.10;;
33987;SDS011;37428;53.580;-1.666;2023-09-19T12:27:13;0.22;;;0.10;;
33987;SDS011;37428;53.580;-1.666;2023-09-19T12:30:15;0.20;;;0.03;;
33987;SDS011;37428;53.580;-1.666;2023-09-19T12:33:19;0.57;;;0.57;;
33987;SDS011;37428;53.580;-1.666;2023-09-19T12:36:23;0.50;;;0.03;;
33987;SDS011;37428;53.580;-1.666;2023-09-19T12:39:30;0.15;;;0.10;;
33987;SDS011;37428;53.580;-1.666;2023-09-19T12:42:32;0.28;;;0.20;;
33987;SDS011;37428;53.580;-1.666;2023-09-19T12:45:35;0.22;;;0.10;;
33987;SDS011;37428;53.580;-1.666;2023-09-19T12:48:39;0.90;;;0.30;;
33987;SDS011;37428;53.580;-1.666;2023-09-19T12:51:48;0.70;;;0.68;;
33987;SDS011;37428;53.580;-1.666;2023-09-19T12:54:52;0.55;;;0.10;;
33987;SDS011;37428;53.580;-1.666;2023-09-19T12:57:59;2.15;;;0.30;;
33987;SDS011;37428;53.580;-1.666;2023-09-19T13:01:13;1.23;;;0.20;;
33987;SDS011;37428;53.580;-1.666;2023-09-19T13:04:16;0.60;;;0.20;;
33987;SDS011;37428;53.580;-1.666;2023-09-19T13:10:59;0.30;;;0.20;;
33987;SDS011;37428;53.580;-1.666;2023-09-19T13:14:13;3.72;;;0.40;;
33987;SDS011;37428;53.580;-1.666;2023-09-19T13:17:17;0.30;;;0.15;;
33987;SDS011;37428;53.580;-1.666;2023-09-19T13:20:21;0.10;;;0.10;;
33987;SDS011;37428;53.580;-1.666;2023-09-19T13:23:29;0.17;;;0.13;;
33987;SDS011;37428;53.580;-1.666;2023-09-19T13:26:31;0.40;;;0.22;;
33987;SDS011;37428;53.580;-1.666;2023-09-19T13:29:33;0.88;;;0.50;;
33987;SDS011;37428;53.580;-1.666;2023-09-19T13:32:35;3.40;;;3.20;;
33987;SDS011;37428;53.580;-1.666;2023-09-19T13:35:40;0.30;;;0.28;;
33987;SDS011;37428;53.580;-1.666;2023-09-19T13:38:44;0.98;;;0.20;;
33987;SDS011;37428;53.580;-1.666;2023-09-19T13:41:48;0.22;;;0.10;;
33987;SDS011;37428;53.580;-1.666;2023-09-19T13:44:51;0.68;;;0.20;;
33987;SDS011;37428;53.580;-1.666;2023-09-19T13:47:53;1.15;;;0.25;;
33987;SDS011;37428;53.580;-1.666;2023-09-19T13:50:55;1.27;;;0.40;;
33987;SDS011;37428;53.580;-1.666;2023-09-19T13:53:59;2.08;;;0.60;;
33987;SDS011;37428;53.580;-1.666;2023-09-19T13:57:01;1.77;;;0.30;;
33987;SDS011;37428;53.580;-1.666;2023-09-19T14:00:04;1.27;;;0.30;;
33987;SDS011;37428;53.580;-1.666;2023-09-19T14:03:10;1.67;;;0.82;;
33987;SDS011;37428;53.580;-1.666;2023-09-19T14:06:12;1.95;;;0.57;;
33987;SDS011;37428;53.580;-1.666;2023-09-19T14:09:16;3.50;;;0.40;;
33987;SDS011;37428;53.580;-1.666;2023-09-19T14:12:19;2.33;;;0.65;;
33987;SDS011;37428;53.580;-1.666;2023-09-19T14:15:21;1.92;;;0.70;;
33987;SDS011;37428;53.580;-1.666;2023-09-19T14:18:29;1.70;;;0.50;;
33987;SDS011;37428;53.580;-1.666;2023-09-19T14:21:31;1.83;;;0.38;;
33987;SDS011;37428;53.580;-1.666;2023-09-19T14:24:35;1.00;;;0.55;;
33987;SDS011;37428;53.580;-1.666;2023-09-19T14:27:37;1.30;;;0.52;;
33987;SDS011;37428;53.580;-1.666;2023-09-19T14:30:39;1.38;;;0.60;;
33987;SDS011;37428;53.580;-1.666;2023-09-19T14:33:41;1.58;;;0.80;;
33987;SDS011;37428;53.580;-1.666;2023-09-19T14:36:44;0.95;;;0.52;;
33987;SDS011;37428;53.580;-1.666;2023-09-19T14:39:47;0.70;;;0.50;;
33987;SDS011;37428;53.580;-1.666;2023-09-19T14:42:50;1.23;;;0.57;;
33987;SDS011;37428;53.580;-1.666;2023-09-19T14:45:52;3.72;;;0.60;;
33987;SDS011;37428;53.580;-1.666;2023-09-19T14:48:54;3.08;;;0.93;;
33987;SDS011;37428;53.580;-1.666;2023-09-19T14:51:59;5.72;;;0.90;;
33987;SDS011;37428;53.580;-1.666;2023-09-19T14:55:10;2.90;;;0.90;;
33987;SDS011;37428;53.580;-1.666;2023-09-19T14:58:14;3.97;;;1.33;;
33987;SDS011;37428;53.580;-1.666;2023-09-19T15:01:16;6.80;;;1.70;;
33987;SDS011;37428;53.580;-1.666;2023-09-19T15:04:18;8.15;;;2.00;;
33987;SDS011;37428;53.580;-1.666;2023-09-19T15:07:20;8.07;;;2.22;;
33987;SDS011;37428;53.580;-1.666;2023-09-19T15:10:24;10.27;;;2.00;;
33987;SDS011;37428;53.580;-1.666;2023-09-19T15:13:26;13.57;;;2.95;;
33987;SDS011;37428;53.580;-1.666;2023-09-19T15:16:29;8.70;;;2.10;;
33987;SDS011;37428;53.580;-1.666;2023-09-19T15:19:32;10.85;;;1.83;;
33987;SDS011;37428;53.580;-1.666;2023-09-19T15:22:36;8.68;;;2.65;;
33987;SDS011;37428;53.580;-1.666;2023-09-19T15:25:41;9.27;;;1.83;;
33987;SDS011;37428;53.580;-1.666;2023-09-19T15:28:51;6.82;;;1.80;;
33987;SDS011;37428;53.580;-1.666;2023-09-19T15:31:54;6.60;;;2.08;;
33987;SDS011;37428;53.580;-1.666;2023-09-19T15:35:02;9.57;;;1.90;;
33987;SDS011;37428;53.580;-1.666;2023-09-19T15:44:14;10.73;;;1.95;;
33987;SDS011;37428;53.580;-1.666;2023-09-19T15:47:19;10.15;;;3.38;;
33987;SDS011;37428;53.580;-1.666;2023-09-19T15:50:23;10.93;;;2.60;;
33987;SDS011;37428;53.580;-1.666;2023-09-19T15:53:25;18.17;;;2.90;;
33987;SDS011;37428;53.580;-1.666;2023-09-19T15:56:29;18.25;;;3.53;;
33987;SDS011;37428;53.580;-1.666;2023-09-19T15:59:31;12.30;;;2.55;;
33987;SDS011;37428;53.580;-1.666;2023-09-19T16:02:33;12.65;;;2.85;;
33987;SDS011;37428;53.580;-1.666;2023-09-19T16:05:36;19.38;;;3.63;;
33987;SDS011;37428;53.580;-1.666;2023-09-19T16:08:40;18.35;;;3.05;;
33987;SDS011;37428;53.580;-1.666;2023-09-19T16:11:43;11.63;;;3.15;;
33987;SDS011;37428;53.580;-1.666;2023-09-19T16:14:45;14.25;;;3.08;;
33987;SDS011;37428;53.580;-1.666;2023-09-19T16:17:48;13.27;;;3.35;;
33987;SDS011;37428;53.580;-1.666;2023-09-19T16:20:50;20.08;;;4.25;;
33987;SDS011;37428;53.580;-1.666;2023-09-19T16:23:52;12.07;;;2.72;;
33987;SDS011;37428;53.580;-1.666;2023-09-19T16:26:56;10.02;;;2.78;;
33987;SDS011;37428;53.580;-1.666;2023-09-19T16:29:59;10.88;;;2.92;;
33987;SDS011;37428;53.580;-1.666;2023-09-19T16:36:07;15.60;;;4.33;;
33987;SDS011;37428;53.580;-1.666;2023-09-19T16:39:11;11.07;;;2.78;;
33987;SDS011;37428;53.580;-1.666;2023-09-19T16:42:15;11.35;;;2.42;;
33987;SDS011;37428;53.580;-1.666;2023-09-19T16:45:17;10.60;;;1.92;;
33987;SDS011;37428;53.580;-1.666;2023-09-19T16:48:19;10.07;;;2.78;;
33987;SDS011;37428;53.580;-1.666;2023-09-19T16:51:21;10.70;;;2.38;;
33987;SDS011;37428;53.580;-1.666;2023-09-19T16:54:25;10.57;;;2.35;;
33987;SDS011;37428;53.580;-1.666;2023-09-19T16:57:29;8.73;;;2.63;;
33987;SDS011;37428;53.580;-1.666;2023-09-19T17:00:34;8.65;;;1.88;;
33987;SDS011;37428;53.580;-1.666;2023-09-19T17:03:39;9.13;;;2.28;;
33987;SDS011;37428;53.580;-1.666;2023-09-19T17:06:42;9.30;;;2.13;;
33987;SDS011;37428;53.580;-1.666;2023-09-19T17:09:46;10.70;;;2.40;;
33987;SDS011;37428;53.580;-1.666;2023-09-19T17:12:50;10.05;;;2.03;;
33987;SDS011;37428;53.580;-1.666;2023-09-19T17:15:59;8.05;;;2.22;;
33987;SDS011;37428;53.580;-1.666;2023-09-19T17:19:02;12.13;;;2.60;;
33987;SDS011;37428;53.580;-1.666;2023-09-19T17:22:06;8.18;;;2.28;;
33987;SDS011;37428;53.580;-1.666;2023-09-19T17:25:08;10.93;;;2.20;;
33987;SDS011;37428;53.580;-1.666;2023-09-19T17:28:14;6.03;;;2.20;;
33987;SDS011;37428;53.580;-1.666;2023-09-19T17:31:16;9.90;;;2.55;;
33987;SDS011;37428;53.580;-1.666;2023-09-19T17:34:21;7.22;;;1.98;;
33987;SDS011;37428;53.580;-1.666;2023-09-19T17:37:23;9.93;;;2.47;;
33987;SDS011;37428;53.580;-1.666;2023-09-19T17:40:25;12.13;;;2.63;;
33987;SDS011;37428;53.580;-1.666;2023-09-19T17:46:32;9.43;;;2.70;;
33987;SDS011;37428;53.580;-1.666;2023-09-19T17:49:36;12.40;;;2.42;;
33987;SDS011;37428;53.580;-1.666;2023-09-19T17:52:39;11.32;;;2.88;;
33987;SDS011;37428;53.580;-1.666;2023-09-19T17:55:43;11.40;;;1.90;;
33987;SDS011;37428;53.580;-1.666;2023-09-19T17:58:48;5.78;;;2.38;;
33987;SDS011;37428;53.580;-1.666;2023-09-19T18:01:55;6.70;;;1.88;;
33987;SDS011;37428;53.580;-1.666;2023-09-19T18:04:57;7.40;;;1.75;;
33987;SDS011;37428;53.580;-1.666;2023-09-19T18:07:59;7.70;;;1.33;;
33987;SDS011;37428;53.580;-1.666;2023-09-19T18:11:01;8.75;;;1.88;;
33987;SDS011;37428;53.580;-1.666;2023-09-19T18:17:07;5.20;;;1.27;;
33987;SDS011;37428;53.580;-1.666;2023-09-19T18:20:10;7.03;;;1.73;;
33987;SDS011;37428;53.580;-1.666;2023-09-19T18:23:15;5.85;;;1.55;;
33987;SDS011;37428;53.580;-1.666;2023-09-19T18:26:17;6.22;;;1.52;;
33987;SDS011;37428;53.580;-1.666;2023-09-19T18:29:21;8.63;;;1.85;;
33987;SDS011;37428;53.580;-1.666;2023-09-19T18:32:25;9.52;;;2.20;;
33987;SDS011;37428;53.580;-1.666;2023-09-19T18:35:27;8.05;;;1.88;;
33987;SDS011;37428;53.580;-1.666;2023-09-19T18:38:31;9.63;;;1.98;;
33987;SDS011;37428;53.580;-1.666;2023-09-19T18:41:34;7.40;;;1.85;;
33987;SDS011;37428;53.580;-1.666;2023-09-19T18:44:40;9.15;;;2.33;;
33987;SDS011;37428;53.580;-1.666;2023-09-19T18:47:44;9.05;;;3.55;;
33987;SDS011;37428;53.580;-1.666;2023-09-19T18:50:46;7.22;;;1.90;;
33987;SDS011;37428;53.580;-1.666;2023-09-19T18:53:49;6.53;;;1.90;;